Time;durP1;ratioP1;P1;durP2;ratioP2;P2;SDS_P1;SDS_P2;PMS_P1;PMS_P2;Temp;Humidity;BMP_temperature;BMP_pressure;BME280_temperature;BME280_humidity;BME280_pressure;Samples;Min_cycle;Max_cycle;Signal;HPM_P1;HPM_P2
2022/02/07 00:02:01;;;;;;;11.70;2.10;;;;;3.70;100491.00;;;;9576127;30;20226;-83
2022/02/07 00:07:05;;;;;;;7.73;1.87;;;;;3.70;100512.00;;;;9594933;30;20564;-83
2022/02/07 00:12:07;;;;;;;13.07;3.00;;;;;3.90;100543.00;;;;9596579;30;20217;-83
2022/02/07 00:17:10;;;;;;;10.73;2.10;;;;;4.10;100566.00;;;;9580231;30;20217;-83
2022/02/07 00:22:12;;;;;;;10.23;1.93;;;;;4.30;100591.00;;;;9579862;30;20686;-83
2022/02/07 00:27:14;;;;;;;10.93;2.40;;;;;4.40;100609.00;;;;9583523;30;20237;-83
2022/02/07 00:32:16;;;;;;;10.23;1.93;;;;;4.40;100622.00;;;;9583005;30;20301;-83
2022/02/07 00:37:18;;;;;;;14.77;3.17;;;;;4.30;100647.00;;;;9570778;30;20225;-82
2022/02/07 00:42:29;;;;;;;6.80;1.53;;;;;4.30;100655.00;;;;9573107;30;20213;-82
2022/02/07 00:47:31;;;;;;;9.17;1.83;;;;;4.30;100692.00;;;;9599949;30;20308;-82
2022/02/07 00:52:33;;;;;;;10.90;1.80;;;;;4.30;100716.00;;;;9585379;30;20208;-82
2022/02/07 00:57:35;;;;;;;7.67;1.97;;;;;4.20;100734.00;;;;9589172;30;20217;-82
2022/02/07 01:02:37;;;;;;;9.87;2.13;;;;;4.20;100755.00;;;;9587618;30;20220;-82
2022/02/07 01:07:42;;;;;;;6.77;1.87;;;;;4.10;100779.00;;;;9585793;30;20242;-83
2022/02/07 01:55:42;;;;;;;3.83;1.50;;;;;4.00;100956.00;;;;9586280;30;20216;-81
2022/02/07 02:00:47;;;;;;;10.37;1.77;;;;;4.00;100991.00;;;;9569992;30;20225;-83
2022/02/07 02:05:51;;;;;;;6.87;2.20;;;;;4.00;101021.00;;;;9617554;30;20253;-81
2022/02/07 02:11:01;;;;;;;9.10;2.23;;;;;4.10;101038.00;;;;9583180;30;20220;-81
2022/02/07 02:16:15;;;;;;;10.77;2.73;;;;;4.10;101049.00;;;;9574255;30;20312;-82
2022/02/07 02:37:27;;;;;;;4.90;1.40;;;;;4.00;101122.00;;;;9601603;30;20227;-82
2022/02/07 02:47:50;;;;;;;9.87;1.30;;;;;4.00;101123.00;;;;9597154;30;20221;-82
2022/02/07 02:53:07;;;;;;;4.60;1.97;;;;;4.10;101138.00;;;;9580765;30;20268;-81
2022/02/07 02:58:14;;;;;;;3.60;1.37;;;;;4.10;101114.00;;;;9603558;30;20209;-82
2022/02/07 03:03:18;;;;;;;7.17;1.20;;;;;4.10;101165.00;;;;9594052;30;20742;-81
2022/02/07 03:08:20;;;;;;;9.20;2.27;;;;;4.10;101180.00;;;;9573280;30;20248;-81
2022/02/07 03:18:26;;;;;;;5.37;1.57;;;;;3.90;101199.00;;;;9577890;30;20278;-81
2022/02/07 03:23:28;;;;;;;10.63;2.67;;;;;3.80;101220.00;;;;9577589;30;20213;-81
2022/02/07 03:28:30;;;;;;;6.63;1.93;;;;;3.70;101205.00;;;;9613127;30;20346;-82
2022/02/07 03:33:32;;;;;;;9.30;2.23;;;;;3.70;101232.00;;;;9591223;30;20680;-82
2022/02/07 03:38:35;;;;;;;11.83;2.60;;;;;3.70;101258.00;;;;9569739;30;20304;-82
2022/02/07 03:43:38;;;;;;;5.60;2.07;;;;;3.70;101278.00;;;;9574773;30;20221;-81
2022/02/07 03:48:41;;;;;;;7.97;1.60;;;;;3.70;101291.00;;;;9595182;30;20225;-81
2022/02/07 03:53:44;;;;;;;11.67;1.73;;;;;3.60;101314.00;;;;9583400;30;20241;-81
2022/02/07 03:58:46;;;;;;;7.67;1.60;;;;;3.50;101335.00;;;;9599749;30;20274;-81
2022/02/07 04:03:51;;;;;;;4.93;1.47;;;;;3.30;101335.00;;;;9601116;30;20264;-82
2022/02/07 04:08:59;;;;;;;8.80;1.63;;;;;3.30;101338.00;;;;9599274;30;20238;-81
2022/02/07 04:14:24;;;;;;;12.23;2.03;;;;;3.30;101343.00;;;;9605370;30;20205;-81
2022/02/07 04:19:42;;;;;;;10.37;2.10;;;;;3.20;101362.00;;;;9609054;30;20217;-81
2022/02/07 04:24:45;;;;;;;9.40;1.73;;;;;3.10;101361.00;;;;9575421;30;20289;-82
2022/02/07 04:29:50;;;;;;;10.57;2.17;;;;;3.10;101370.00;;;;9612435;30;20264;-82
2022/02/07 04:34:58;;;;;;;9.73;2.10;;;;;3.10;101376.00;;;;9582187;30;20300;-81
2022/02/07 04:40:02;;;;;;;5.80;1.50;;;;;3.10;101389.00;;;;9613916;30;20210;-82
2022/02/07 05:01:02;;;;;;;4.93;1.67;;;;;3.00;101429.00;;;;9593983;30;20213;-81
2022/02/07 05:16:53;;;;;;;8.70;1.90;;;;;3.10;101493.00;;;;9602345;30;20229;-81
2022/02/07 05:22:17;;;;;;;10.07;1.90;;;;;2.90;101494.00;;;;9596737;30;20876;-81
2022/02/07 05:27:36;;;;;;;9.53;1.90;;;;;2.80;101500.00;;;;9613610;30;20237;-82
2022/02/07 05:32:52;;;;;;;11.13;2.60;;;;;2.80;101515.00;;;;9601393;30;20213;-81
2022/02/07 05:38:13;;;;;;;10.80;2.37;;;;;2.70;101528.00;;;;9592188;30;20275;-81
2022/02/07 05:43:40;;;;;;;8.37;2.30;;;;;2.80;101541.00;;;;9590757;30;20236;-82
2022/02/07 05:49:03;;;;;;;9.13;2.50;;;;;2.80;101557.00;;;;9591667;30;20337;-81
2022/02/07 05:54:25;;;;;;;8.77;2.47;;;;;2.70;101574.00;;;;9590790;30;20233;-81
2022/02/07 05:59:56;;;;;;;6.13;1.90;;;;;2.60;101580.00;;;;9604078;30;20272;-82
2022/02/07 06:05:16;;;;;;;13.20;2.73;;;;;2.60;101581.00;;;;9574768;30;20329;-81
2022/02/07 06:10:18;;;;;;;8.33;2.30;;;;;2.60;101592.00;;;;9611343;30;20239;-82
2022/02/07 06:15:22;;;;;;;9.33;2.63;;;;;2.60;101587.00;;;;9587135;30;20228;-81
2022/02/07 06:20:26;;;;;;;9.37;2.10;;;;;2.60;101597.00;;;;9597033;30;20259;-81
2022/02/07 06:25:29;;;;;;;8.43;1.83;;;;;2.60;101614.00;;;;9588894;30;20706;-81
2022/02/07 06:30:32;;;;;;;8.13;1.93;;;;;2.70;101638.00;;;;9600481;30;20328;-81
2022/02/07 06:35:34;;;;;;;10.20;2.00;;;;;2.80;101639.00;;;;9575896;30;20818;-82
2022/02/07 06:40:38;;;;;;;8.07;2.27;;;;;3.00;101649.00;;;;9577489;30;20225;-81
2022/02/07 06:45:40;;;;;;;13.43;2.50;;;;;3.20;101655.00;;;;9581291;30;20209;-81
2022/02/07 06:50:43;;;;;;;8.73;2.07;;;;;3.30;101678.00;;;;9599229;30;20233;-82
2022/02/07 06:55:45;;;;;;;9.93;2.57;;;;;3.30;101678.00;;;;9596100;30;20210;-81
2022/02/07 07:00:52;;;;;;;8.93;2.10;;;;;3.30;101687.00;;;;9581286;30;20307;-82
2022/02/07 07:05:59;;;;;;;8.93;2.10;;;;;3.40;101717.00;;;;9594589;30;20229;-81
2022/02/07 07:11:05;;;;;;;9.57;2.00;;;;;3.50;101718.00;;;;9578352;30;20228;-81
2022/02/07 07:21:27;;;;;;;10.30;2.50;;;;;3.60;101751.00;;;;9597985;30;20556;-82
2022/02/07 07:26:31;;;;;;;12.27;2.83;;;;;3.60;101768.00;;;;9601728;30;20225;-81
2022/02/07 07:31:42;;;;;;;9.03;2.37;;;;;3.70;101776.00;;;;9598737;30;20832;-80
2022/02/07 07:36:46;;;;;;;8.23;1.97;;;;;3.80;101781.00;;;;9571795;30;20275;-81
2022/02/07 07:41:49;;;;;;;7.87;2.33;;;;;3.90;101783.00;;;;9587348;30;20666;-81
2022/02/07 07:47:05;;;;;;;12.77;1.90;;;;;4.00;101789.00;;;;9588599;30;20233;-81
2022/02/07 07:52:41;;;;;;;11.00;2.07;;;;;4.10;101813.00;;;;9589616;30;20326;-78
2022/02/07 08:03:24;;;;;;;8.90;2.13;;;;;4.30;101846.00;;;;9613752;30;20555;-79
2022/02/07 08:08:33;;;;;;;13.50;3.93;;;;;4.40;101869.00;;;;9613550;30;20229;-83
2022/02/07 08:13:40;;;;;;;16.07;2.20;;;;;4.60;101894.00;;;;9611382;30;20243;-80
2022/02/07 08:18:50;;;;;;;8.80;1.80;;;;;4.70;101922.00;;;;9612596;30;20218;-83
2022/02/07 08:23:52;;;;;;;9.43;1.80;;;;;4.80;101926.00;;;;9609285;30;20217;-81
2022/02/07 08:28:56;;;;;;;8.97;2.13;;;;;4.70;101933.00;;;;9631042;30;20241;-80
2022/02/07 08:33:58;;;;;;;8.70;1.70;;;;;4.70;101939.00;;;;9590537;30;20209;-80
2022/02/07 08:39:02;;;;;;;7.57;1.70;;;;;4.90;101939.00;;;;9615272;30;20205;-78
2022/02/07 08:44:04;;;;;;;7.23;2.63;;;;;5.20;101975.00;;;;9586014;30;20269;-79
2022/02/07 08:49:06;;;;;;;11.50;2.20;;;;;5.40;101992.00;;;;9574976;30;20706;-77
2022/02/07 08:54:09;;;;;;;6.43;2.20;;;;;5.40;101988.00;;;;9609632;30;20225;-78
2022/02/07 08:59:12;;;;;;;15.43;2.20;;;;;5.50;101990.00;;;;9602765;30;20245;-78
2022/02/07 09:09:40;;;;;;;16.13;2.60;;;;;5.30;102017.00;;;;9601316;30;20319;-78
2022/02/07 09:14:57;;;;;;;9.57;1.87;;;;;5.30;102027.00;;;;9578037;30;20463;-77
2022/02/07 09:19:59;;;;;;;5.33;2.60;;;;;6.10;102040.00;;;;9591848;30;20233;-78
2022/02/07 09:25:00;;;;;;;8.53;1.70;;;;;6.80;102044.00;;;;9599300;30;20700;-78
2022/02/07 09:30:06;;;;;;;11.57;2.70;;;;;7.30;102056.00;;;;9604383;30;20329;-79
2022/02/07 09:35:08;;;;;;;5.73;2.00;;;;;7.60;102052.00;;;;9581506;30;20209;-78
2022/02/07 09:40:12;;;;;;;6.27;1.67;;;;;7.90;102060.00;;;;9579299;30;20770;-79
2022/02/07 09:45:31;;;;;;;8.87;2.90;;;;;8.10;102060.00;;;;9591323;30;20560;-80
2022/02/07 09:50:34;;;;;;;7.20;1.50;;;;;8.30;102078.00;;;;9602662;30;20312;-79
2022/02/07 09:55:37;;;;;;;9.70;1.60;;;;;8.40;102086.00;;;;9606655;30;20213;-79
2022/02/07 10:00:40;;;;;;;4.73;1.87;;;;;8.60;102090.00;;;;9601828;30;20209;-80
2022/02/07 10:16:45;;;;;;;5.93;1.63;;;;;8.50;102142.00;;;;9607617;30;20220;-79
2022/02/07 10:37:58;;;;;;;6.67;1.30;;;;;9.30;102190.00;;;;9601018;30;20224;-78
2022/02/07 10:43:12;;;;;;;6.80;1.87;;;;;9.30;102202.00;;;;9601381;30;20268;-79
2022/02/07 10:48:31;;;;;;;6.77;1.53;;;;;9.70;102207.00;;;;9593862;30;20229;-79
2022/02/07 10:53:36;;;;;;;3.70;1.37;;;;;9.90;102225.00;;;;9560423;30;20223;-78
2022/02/07 10:58:39;;;;;;;8.43;1.63;;;;;10.00;102223.00;;;;9580240;30;20630;-78
2022/02/07 11:03:46;;;;;;;8.37;1.90;;;;;10.10;102233.00;;;;9617203;30;20236;-79
2022/02/07 11:20:08;;;;;;;7.73;1.63;;;;;10.60;102225.00;;;;9596988;30;20809;-78
2022/02/07 11:30:43;;;;;;;11.60;2.80;;;;;11.00;102230.00;;;;9616153;30;20227;-79
2022/02/07 11:35:50;;;;;;;6.53;1.83;;;;;11.00;102245.00;;;;9611257;30;20275;-78
2022/02/07 11:41:02;;;;;;;7.60;2.67;;;;;10.80;102232.00;;;;9617481;30;20206;-78
2022/02/07 11:46:11;;;;;;;6.30;1.80;;;;;10.70;102223.00;;;;9592023;30;20204;-78
2022/02/07 11:51:34;;;;;;;9.53;1.97;;;;;10.70;102210.00;;;;9619273;30;20221;-78
2022/02/07 12:01:49;;;;;;;10.00;2.10;;;;;10.50;102213.00;;;;9609972;30;20232;-78
2022/02/07 12:07:22;;;;;;;7.80;1.60;;;;;10.80;102222.00;;;;9586615;30;20348;-78
2022/02/07 12:12:37;;;;;;;6.90;1.90;;;;;11.00;102231.00;;;;9607829;30;20734;-78
2022/02/07 12:17:46;;;;;;;12.33;2.40;;;;;11.20;102236.00;;;;9618310;30;20205;-77
2022/02/07 12:22:57;;;;;;;9.13;2.27;;;;;11.30;102225.00;;;;9597575;30;20273;-78
2022/02/07 12:28:02;;;;;;;6.20;1.83;;;;;11.40;102228.00;;;;9618892;30;20225;-77
2022/02/07 12:33:05;;;;;;;10.63;2.27;;;;;11.60;102229.00;;;;9589562;30;20234;-77
2022/02/07 12:38:35;;;;;;;4.87;1.37;;;;;11.60;102226.00;;;;9611103;30;20209;-78
2022/02/07 12:43:39;;;;;;;10.17;2.23;;;;;11.60;102232.00;;;;9602308;30;20205;-77
2022/02/07 12:49:10;;;;;;;6.53;1.70;;;;;11.60;102245.00;;;;9577667;30;20225;-78
2022/02/07 12:54:04;;;;;;;4.70;1.90;;;;;11.60;102251.00;;;;9620247;30;20213;-78
2022/02/07 12:59:07;;;;;;;8.43;2.00;;;;;11.70;102252.00;;;;9606782;30;20250;-78
2022/02/07 13:04:13;;;;;;;6.00;1.60;;;;;11.70;102252.00;;;;9604445;30;20711;-78
2022/02/07 13:09:24;;;;;;;6.00;1.57;;;;;11.70;102246.00;;;;9588674;30;20221;-78
2022/02/07 13:14:27;;;;;;;12.53;2.20;;;;;11.70;102255.00;;;;9608709;30;20292;-78
2022/02/07 13:19:38;;;;;;;6.60;2.03;;;;;11.50;102259.00;;;;9591078;30;20212;-78
2022/02/07 13:24:40;;;;;;;4.30;1.60;;;;;11.50;102253.00;;;;9598341;30;20210;-78
2022/02/07 13:29:51;;;;;;;9.87;2.07;;;;;11.30;102263.00;;;;9578660;30;20315;-78
2022/02/07 13:35:34;;;;;;;8.00;1.67;;;;;11.30;102257.00;;;;9581747;30;20209;-78
2022/02/07 13:40:58;;;;;;;3.20;1.50;;;;;11.10;102269.00;;;;9610802;30;20677;-78
2022/02/07 13:46:04;;;;;;;7.57;1.57;;;;;10.90;102268.00;;;;9601888;30;20253;-79
2022/02/07 13:51:07;;;;;;;8.50;1.50;;;;;10.40;102274.00;;;;9626315;30;20224;-79
2022/02/07 13:56:09;;;;;;;3.93;1.23;;;;;10.40;102283.00;;;;9611958;30;20687;-78
2022/02/07 14:01:15;;;;;;;8.77;1.87;;;;;10.60;102285.00;;;;9590183;30;20608;-78
2022/02/07 14:06:19;;;;;;;2.73;1.57;;;;;10.50;102285.00;;;;9610557;30;20245;-78
2022/02/07 14:11:30;;;;;;;6.10;1.70;;;;;10.40;102284.00;;;;9608492;30;20256;-78
2022/02/07 14:16:36;;;;;;;5.00;2.00;;;;;10.70;102291.00;;;;9604733;30;20213;-79
2022/02/07 14:21:38;;;;;;;7.20;1.90;;;;;11.20;102291.00;;;;9595288;30;20245;-78
2022/02/07 14:26:40;;;;;;;11.23;1.90;;;;;11.40;102284.00;;;;9610046;30;20737;-77
2022/02/07 14:31:42;;;;;;;9.73;1.83;;;;;12.30;102278.00;;;;9609083;30;20240;-78
2022/02/07 14:36:44;;;;;;;6.00;1.87;;;;;13.60;102253.00;;;;9581313;30;20728;-78
2022/02/07 14:41:48;;;;;;;5.70;1.73;;;;;13.50;102264.00;;;;9608123;30;20284;-79
2022/02/07 14:47:05;;;;;;;5.00;1.93;;;;;13.50;102280.00;;;;9610708;30;20232;-78
2022/02/07 14:52:07;;;;;;;6.70;1.53;;;;;12.70;102262.00;;;;9596747;30;20302;-78
2022/02/07 14:57:09;;;;;;;5.23;1.40;;;;;12.40;102254.00;;;;9625786;30;20272;-79
2022/02/07 15:02:11;;;;;;;6.03;1.57;;;;;13.30;102239.00;;;;9596902;30;20209;-78
2022/02/07 15:07:13;;;;;;;8.40;1.60;;;;;13.40;102274.00;;;;9604962;30;20313;-79
2022/02/07 15:12:15;;;;;;;7.00;1.50;;;;;11.70;102301.00;;;;9610732;30;20298;-78
2022/02/07 15:17:19;;;;;;;6.93;1.47;;;;;9.80;102314.00;;;;9604593;30;20680;-79
2022/02/07 15:22:22;;;;;;;6.07;1.50;;;;;9.70;102285.00;;;;9607130;30;20265;-79
2022/02/07 15:27:29;;;;;;;4.73;1.80;;;;;12.10;102269.00;;;;9611385;30;20209;-78
2022/02/07 15:32:41;;;;;;;11.23;1.87;;;;;12.30;102260.00;;;;9620546;30;20309;-79
2022/02/07 15:37:43;;;;;;;6.43;2.00;;;;;12.10;102272.00;;;;9583515;30;20236;-79
2022/02/07 15:42:45;;;;;;;5.27;2.03;;;;;11.00;102317.00;;;;9619401;30;20263;-79
2022/02/07 15:47:47;;;;;;;6.87;1.80;;;;;9.80;102306.00;;;;9622098;30;20205;-78
2022/02/07 15:52:49;;;;;;;8.87;2.70;;;;;9.20;102318.00;;;;9602730;30;20208;-79
2022/02/07 15:57:51;;;;;;;9.60;2.20;;;;;8.20;102328.00;;;;9589669;30;20675;-79
2022/02/07 16:02:54;;;;;;;6.13;2.23;;;;;7.80;102330.00;;;;9586998;30;20233;-79
2022/02/07 16:08:00;;;;;;;7.97;2.33;;;;;7.50;102337.00;;;;9586920;30;20240;-79
2022/02/07 16:18:19;;;;;;;10.07;1.97;;;;;7.10;102331.00;;;;9617896;30;20212;-79
2022/02/07 16:23:22;;;;;;;3.57;1.63;;;;;7.00;102323.00;;;;9608844;30;20204;-78
2022/02/07 16:28:25;;;;;;;11.77;2.20;;;;;6.80;102320.00;;;;9622247;30;20223;-79
2022/02/07 16:33:27;;;;;;;8.47;2.10;;;;;6.60;102329.00;;;;9610434;30;20276;-79
2022/02/07 16:38:29;;;;;;;8.07;2.50;;;;;6.40;102343.00;;;;9602603;30;20212;-79
2022/02/07 16:43:38;;;;;;;4.17;1.90;;;;;6.10;102354.00;;;;9614879;30;20297;-78
2022/02/07 16:48:40;;;;;;;9.37;2.40;;;;;6.00;102352.00;;;;9570396;30;20219;-78
2022/02/07 16:53:41;;;;;;;7.30;2.63;;;;;5.90;102352.00;;;;9626358;30;20208;-79
2022/02/07 16:58:43;;;;;;;6.17;2.30;;;;;5.90;102350.00;;;;9619013;30;20221;-79
2022/02/07 17:03:45;;;;;;;8.50;2.77;;;;;5.70;102339.00;;;;9588469;30;20224;-79
2022/02/07 17:08:47;;;;;;;15.17;2.80;;;;;5.60;102333.00;;;;9598798;30;20233;-79
2022/02/07 17:13:49;;;;;;;9.53;2.53;;;;;5.50;102332.00;;;;9612839;30;20268;-78
2022/02/07 17:18:51;;;;;;;10.47;2.87;;;;;5.30;102338.00;;;;9628799;30;20261;-79
2022/02/07 17:23:54;;;;;;;5.77;2.30;;;;;5.20;102330.00;;;;9625570;30;20198;-79
2022/02/07 17:28:57;;;;;;;9.50;3.30;;;;;5.10;102332.00;;;;9581171;30;20567;-79
2022/02/07 17:34:01;;;;;;;6.20;2.13;;;;;4.90;102331.00;;;;9569519;30;20216;-79
2022/02/07 17:39:04;;;;;;;6.60;2.20;;;;;4.90;102313.00;;;;9625419;30;20272;-79
2022/02/07 17:44:10;;;;;;;7.57;2.30;;;;;4.90;102312.00;;;;9608330;30;20201;-79
2022/02/07 17:49:12;;;;;;;8.40;1.90;;;;;4.90;102313.00;;;;9622154;30;20288;-79
2022/02/07 17:54:16;;;;;;;5.57;2.77;;;;;4.90;102307.00;;;;9614350;30;20301;-80
2022/02/07 17:59:18;;;;;;;9.63;3.37;;;;;4.80;102319.00;;;;9607467;30;20325;-79
2022/02/07 18:04:23;;;;;;;8.93;2.87;;;;;4.70;102312.00;;;;9615003;30;20290;-80
2022/02/07 18:09:25;;;;;;;13.03;3.17;;;;;4.70;102320.00;;;;9624640;30;20264;-79
2022/02/07 18:14:28;;;;;;;7.23;2.20;;;;;4.80;102322.00;;;;9622309;30;20251;-78
2022/02/07 18:19:34;;;;;;;10.83;2.67;;;;;4.70;102322.00;;;;9585646;30;20205;-79
2022/02/07 18:24:36;;;;;;;13.13;2.50;;;;;4.70;102342.00;;;;9594401;30;20288;-79
2022/02/07 18:29:48;;;;;;;11.20;3.10;;;;;4.50;102333.00;;;;9612197;30;20213;-79
2022/02/07 18:34:50;;;;;;;9.80;2.47;;;;;4.40;102333.00;;;;9609336;30;20602;-79
2022/02/07 18:39:52;;;;;;;8.93;3.07;;;;;4.30;102329.00;;;;9594788;30;20205;-79
2022/02/07 18:44:58;;;;;;;12.53;3.13;;;;;4.10;102314.00;;;;9604423;30;20205;-79
2022/02/07 18:50:01;;;;;;;13.60;2.73;;;;;4.20;102301.00;;;;9595403;30;20221;-78
2022/02/07 18:55:04;;;;;;;9.60;3.20;;;;;4.30;102287.00;;;;9607588;30;20272;-79
2022/02/07 19:00:11;;;;;;;9.00;2.83;;;;;4.50;102283.00;;;;9587051;30;20703;-79
2022/02/07 19:10:22;;;;;;;12.23;3.10;;;;;5.00;102279.00;;;;9607381;30;20774;-79
2022/02/07 19:15:26;;;;;;;9.87;2.63;;;;;5.20;102281.00;;;;9602839;30;20229;-79
2022/02/07 19:20:30;;;;;;;6.03;2.10;;;;;5.30;102278.00;;;;9601405;30;20272;-79
2022/02/07 19:25:48;;;;;;;8.13;2.90;;;;;5.30;102289.00;;;;9608625;30;20214;-79
2022/02/07 19:30:59;;;;;;;11.23;2.83;;;;;5.20;102290.00;;;;9593540;30;20212;-79
2022/02/07 19:36:02;;;;;;;12.97;2.57;;;;;5.10;102291.00;;;;9602416;30;20237;-79
2022/02/07 19:41:23;;;;;;;11.73;2.70;;;;;5.10;102284.00;;;;9606006;30;20213;-79
2022/02/07 19:46:26;;;;;;;10.03;3.03;;;;;5.10;102286.00;;;;9590412;30;20284;-79
2022/02/07 19:51:28;;;;;;;14.80;3.53;;;;;5.00;102286.00;;;;9597214;30;20245;-79
2022/02/07 19:56:30;;;;;;;17.73;3.33;;;;;5.10;102287.00;;;;9592443;30;20236;-79
2022/02/07 20:01:33;;;;;;;13.73;3.07;;;;;5.10;102300.00;;;;9620732;30;20263;-79
2022/02/07 20:06:36;;;;;;;11.27;2.90;;;;;5.20;102291.00;;;;9594497;30;20234;-79
2022/02/07 20:11:44;;;;;;;15.90;3.83;;;;;5.30;102290.00;;;;9608921;30;20595;-79
2022/02/07 20:16:46;;;;;;;12.17;3.30;;;;;5.50;102295.00;;;;9605499;30;20209;-80
2022/02/07 20:21:49;;;;;;;16.57;3.53;;;;;5.60;102300.00;;;;9614715;30;20232;-79
2022/02/07 20:26:56;;;;;;;7.03;2.80;;;;;5.80;102273.00;;;;9592485;30;20244;-79
2022/02/07 20:32:06;;;;;;;10.60;2.97;;;;;5.90;102290.00;;;;9622684;30;20225;-79
2022/02/07 20:37:11;;;;;;;11.17;3.23;;;;;6.00;102286.00;;;;9622816;30;20307;-79
2022/02/07 20:42:15;;;;;;;14.67;3.90;;;;;6.10;102290.00;;;;9604236;30;20260;-79
2022/02/07 20:47:23;;;;;;;13.63;3.90;;;;;6.20;102299.00;;;;9612414;30;20441;-79
2022/02/07 20:52:25;;;;;;;12.27;2.90;;;;;6.20;102287.00;;;;9608620;30;20244;-79
2022/02/07 20:57:28;;;;;;;16.03;3.13;;;;;6.20;102290.00;;;;9609067;30;20288;-79
2022/02/07 21:02:51;;;;;;;10.40;3.77;;;;;6.30;102301.00;;;;9596252;30;20212;-79
2022/02/07 21:08:00;;;;;;;18.63;3.73;;;;;6.30;102302.00;;;;9607427;30;20793;-79
2022/02/07 21:13:10;;;;;;;13.63;3.40;;;;;6.30;102284.00;;;;9615801;30;20303;-79
2022/02/07 21:18:12;;;;;;;20.50;4.63;;;;;6.30;102296.00;;;;9584581;30;20236;-79
2022/02/07 21:23:20;;;;;;;14.53;3.10;;;;;6.30;102299.00;;;;9619286;30;20204;-78
2022/02/07 21:28:22;;;;;;;13.87;3.17;;;;;6.30;102293.00;;;;9624095;30;20242;-79
2022/02/07 21:33:27;;;;;;;16.37;2.67;;;;;6.40;102298.00;;;;9615091;30;20309;-79
2022/02/07 21:38:32;;;;;;;14.93;3.30;;;;;6.40;102294.00;;;;9611011;30;20209;-79
2022/02/07 21:43:35;;;;;;;15.37;3.60;;;;;6.40;102276.00;;;;9617090;30;20234;-79
2022/02/07 21:48:40;;;;;;;11.83;3.37;;;;;6.50;102289.00;;;;9600575;30;20220;-79
2022/02/07 21:53:42;;;;;;;17.23;3.70;;;;;6.50;102282.00;;;;9597470;30;20303;-79
2022/02/07 21:58:44;;;;;;;14.13;4.10;;;;;6.60;102286.00;;;;9611399;30;20345;-79
2022/02/07 22:03:46;;;;;;;13.83;3.87;;;;;6.60;102282.00;;;;9611917;30;20230;-79
2022/02/07 22:08:51;;;;;;;12.37;3.70;;;;;6.70;102287.00;;;;9610945;30;20251;-79
2022/02/07 22:13:53;;;;;;;14.53;3.67;;;;;6.70;102294.00;;;;9611566;30;20229;-79
2022/02/07 22:18:55;;;;;;;17.00;3.83;;;;;6.70;102285.00;;;;9612737;30;20205;-79
2022/02/07 22:23:58;;;;;;;24.03;4.17;;;;;6.80;102293.00;;;;9615262;30;20257;-79
2022/02/07 22:29:05;;;;;;;15.27;3.87;;;;;6.80;102283.00;;;;9622990;30;20205;-79
2022/02/07 22:34:26;;;;;;;15.30;3.40;;;;;6.80;102281.00;;;;9614852;30;20309;-79
2022/02/07 22:39:28;;;;;;;21.60;3.93;;;;;6.80;102288.00;;;;9612372;30;20197;-79
2022/02/07 22:44:31;;;;;;;18.50;3.30;;;;;6.80;102287.00;;;;9603145;30;20206;-79
2022/02/07 22:49:34;;;;;;;13.03;3.57;;;;;6.80;102288.00;;;;9584017;30;20303;-79
2022/02/07 22:54:36;;;;;;;17.83;3.60;;;;;6.80;102301.00;;;;9597073;30;20205;-78
2022/02/07 22:59:38;;;;;;;18.43;4.30;;;;;6.80;102296.00;;;;9629392;30;20227;-78
2022/02/07 23:04:40;;;;;;;14.93;3.03;;;;;6.70;102293.00;;;;9610683;30;20240;-79
2022/02/07 23:10:03;;;;;;;17.70;3.43;;;;;6.60;102288.00;;;;9590061;30;20257;-79
2022/02/07 23:20:55;;;;;;;13.83;3.87;;;;;6.40;102295.00;;;;9611889;30;20616;-79
2022/02/07 23:36:41;;;;;;;13.53;3.90;;;;;6.40;102307.00;;;;9612665;30;20237;-79
2022/02/07 23:41:48;;;;;;;16.40;3.70;;;;;6.40;102319.00;;;;9575304;30;20292;-78
2022/02/07 23:46:57;;;;;;;17.27;3.43;;;;;6.40;102321.00;;;;9608229;30;20265;-79
2022/02/07 23:52:13;;;;;;;16.37;3.30;;;;;6.50;102323.00;;;;9610006;30;20232;-79
2022/02/07 23:57:26;;;;;;;15.50;4.23;;;;;6.40;102319.00;;;;9603340;30;20239;-78
